Terminal Aerodrome Forecast
Issued by NWS Paducah, KY

Home | Current Version | Previous Version | Text Only | Print | Product List | Glossary On
Versions: 1 2 3 4 5 6 7 8 9 10 11 12 13 14 15 16 17 18
005
FTUS43 KPAH 241120
TAFEVV
TAF
KEVV 241120Z 2412/2512 00000KT 3SM BR SKC
     FM241330 18001KT P6SM FEW008 SCT300
     FM241600 19005KT P6SM FEW025 SCT250
     FM250100 22003KT P6SM BKN300
      TEMPO 2507/2510 -SHRA SCT050 BKN300=

USA.gov is the U.S. government's official web portal to all federal, state and local government web resources and services.